X  Fechar Dados meteorológicos de METAR da aviação     EDDC Dresden Airport
Temperatura
10°C Temperatura
9°C Ponto de orvalho
94% Umidade



Vento
3 M/S
6 MPH
10 KM/H
5 NÓS



180°
S
Condições atuais

Limpo Limpo
Pressão 1015.92 (hPa) - 30 (inHg)
Visibilidade 6 (milha) - 9.7 (km)
Aeroporto
Código do aeroporto EDDC

Localização: Dresden Airport
Distância: 122 (km)

Metar:
EDDC 290420Z AUTO 18005KT CAVOK 10/09 Q1016 NOSIG

Hora: 29-05-2024 06:20 CEST